createdAt,value
2022-12-07T00:04:32.662Z,97128.19
2022-12-07T00:09:34.392Z,97123.13
2022-12-07T00:14:36.053Z,97125.03
2022-12-07T00:19:37.722Z,97124.19
2022-12-07T00:24:39.457Z,97115.81
2022-12-07T00:29:41.138Z,97112.50
2022-12-07T00:34:42.833Z,97115.22
2022-12-07T00:39:44.616Z,97117.13
2022-12-07T00:44:46.821Z,97117.38
2022-12-07T00:49:48.532Z,97119.13
2022-12-07T00:54:50.265Z,97125.03
2022-12-07T00:59:56.099Z,97118.16
2022-12-07T01:04:57.849Z,97121.09
2022-12-07T01:09:59.992Z,97121.56
2022-12-07T01:15:01.914Z,97128.19
2022-12-07T01:20:04.738Z,97123.25
2022-12-07T01:25:08.125Z,97133.34
2022-12-07T01:30:11.713Z,97129.13
2022-12-07T01:35:13.409Z,97126.19
2022-12-07T01:40:15.186Z,97128.66
2022-12-07T01:45:19.651Z,97125.72
2022-12-07T01:50:25.171Z,97117.38
2022-12-07T01:55:27.940Z,97117.38
2022-12-07T02:00:29.595Z,97120.66
2022-12-07T02:05:32.151Z,97116.16
2022-12-07T02:10:34.326Z,97118.97
2022-12-07T02:15:35.950Z,97119.69
2022-12-07T02:20:45.200Z,97128.13
2022-12-07T02:25:49.829Z,97118.81
2022-12-07T02:30:53.174Z,97112.47
2022-12-07T02:36:02.461Z,97110.00
2022-12-07T02:41:11.325Z,97110.97
2022-12-07T02:46:18.514Z,97106.06
2022-12-07T02:51:20.691Z,97105.34
2022-12-07T02:56:34.420Z,97105.94
2022-12-07T03:01:53.195Z,97100.97
2022-12-07T03:06:57.920Z,97099.31
2022-12-07T03:12:19.810Z,97098.03
2022-12-07T03:17:28.082Z,97098.03
2022-12-07T03:22:32.321Z,97098.50
2022-12-07T03:27:39.404Z,97094.38
2022-12-07T03:32:47.061Z,97099.41
2022-12-07T03:37:52.519Z,97096.72
2022-12-07T03:42:55.184Z,97088.13
2022-12-07T03:48:05.797Z,97092.38
2022-12-07T03:53:30.585Z,97095.69
2022-12-07T03:58:33.325Z,97094.00
2022-12-07T04:03:35.059Z,97095.69
2022-12-07T04:08:36.794Z,97094.38
2022-12-07T04:13:58.303Z,97098.38
2022-12-07T04:18:59.900Z,97085.63
2022-12-07T04:24:01.521Z,97082.69
2022-12-07T04:29:07.674Z,97078.22
2022-12-07T04:34:10.056Z,97081.97
2022-12-07T04:39:30.891Z,97077.75
2022-12-07T04:44:32.664Z,97067.25
2022-12-07T04:49:34.333Z,97076.47
2022-12-07T04:54:36.317Z,97076.09
2022-12-07T04:59:42.313Z,97079.28
2022-12-07T05:04:46.854Z,97074.66
2022-12-07T05:09:48.417Z,97065.09
2022-12-07T05:14:50.007Z,97073.31
2022-12-07T05:19:51.694Z,97065.66
2022-12-07T05:24:53.273Z,97067.19
2022-12-07T05:29:54.952Z,97058.34
2022-12-07T05:34:56.569Z,97055.03
2022-12-07T05:39:58.357Z,97056.56
2022-12-07T05:44:59.963Z,97049.94
2022-12-07T05:50:01.998Z,97046.88
2022-12-07T05:55:03.968Z,97056.88
2022-12-07T06:00:06.224Z,97044.13
2022-12-07T06:05:13.942Z,97052.59
2022-12-07T06:10:15.778Z,97044.78
2022-12-07T06:15:17.612Z,97041.47
2022-12-07T06:20:19.227Z,97046.59
2022-12-07T06:25:20.833Z,97051.06
2022-12-07T06:30:22.409Z,97054.56
2022-12-07T06:35:24.092Z,97051.16
2022-12-07T06:40:27.228Z,97048.38
2022-12-07T06:45:28.953Z,97053.59
2022-12-07T06:50:30.598Z,97058.34
2022-12-07T06:55:32.175Z,97057.59
2022-12-07T07:00:35.688Z,97058.56
2022-12-07T07:05:37.324Z,97068.56
2022-12-07T07:10:39.180Z,97077.81
2022-12-07T07:15:41.109Z,97081.47
2022-12-07T07:20:42.809Z,97097.31
2022-12-07T07:25:44.969Z,97124.34
2022-12-07T07:30:46.736Z,97141.28
2022-12-07T07:35:48.368Z,97143.69
2022-12-07T07:40:50.260Z,97142.13
2022-12-07T07:45:51.924Z,97134.19
2022-12-07T07:50:53.695Z,97140.31
2022-12-07T07:55:55.379Z,97127.31
2022-12-07T08:00:57.037Z,97129.81
2022-12-07T08:05:58.593Z,97129.56
2022-12-07T08:11:03.187Z,97131.22
2022-12-07T08:16:06.034Z,97133.88
2022-12-07T08:21:10.363Z,97125.69
2022-12-07T08:26:13.826Z,97141.03
2022-12-07T08:31:18.053Z,97135.91
2022-12-07T08:36:19.740Z,97146.91
2022-12-07T08:41:21.464Z,97142.28
2022-12-07T08:46:26.579Z,97137.22
2022-12-07T08:51:28.588Z,97141.50
2022-12-07T08:56:30.269Z,97139.13
2022-12-07T09:01:31.910Z,97156.16
2022-12-07T09:06:34.178Z,97147.13
2022-12-07T09:11:36.027Z,97152.44
2022-12-07T09:16:37.744Z,97149.69
2022-12-07T09:21:39.439Z,97146.22
2022-12-07T09:26:41.441Z,97133.22
2022-12-07T09:31:43.207Z,97137.84
2022-12-07T09:36:45.336Z,97133.47
2022-12-07T09:41:47.112Z,97132.31
2022-12-07T09:46:49.153Z,97134.25
2022-12-07T09:52:01.918Z,97129.69
2022-12-07T09:57:04.156Z,97126.75
2022-12-07T10:02:24.482Z,97116.63
2022-12-07T10:07:26.130Z,97105.31
2022-12-07T10:12:28.022Z,97097.56
2022-12-07T10:17:31.424Z,97094.97
2022-12-07T10:22:33.111Z,97086.84
2022-12-07T10:27:34.721Z,97095.91
2022-12-07T10:32:37.271Z,97097.56
2022-12-07T10:37:42.703Z,97092.84
2022-12-07T10:43:00.848Z,97095.22
2022-12-07T10:48:05.477Z,97092.97
2022-12-07T10:53:27.419Z,97082.50
2022-12-07T10:58:47.409Z,97083.06
2022-12-07T11:04:08.429Z,97077.53
2022-12-07T11:09:38.558Z,97070.47
2022-12-07T11:14:46.991Z,97063.75
2022-12-07T11:20:12.007Z,97055.38
2022-12-07T11:25:32.768Z,97049.69
2022-12-07T11:30:42.350Z,97040.13
2022-12-07T11:35:54.016Z,97039.97
2022-12-07T11:41:13.403Z,97035.50
2022-12-07T11:46:16.923Z,97036.72
2022-12-07T11:51:22.028Z,97024.91
2022-12-07T11:56:26.108Z,97026.66
2022-12-07T12:01:39.955Z,97028.44
2022-12-07T12:06:42.911Z,97016.75
2022-12-07T12:11:44.489Z,97020.66
2022-12-07T12:16:58.288Z,97016.19
2022-12-07T12:22:18.385Z,97016.06
2022-12-07T12:27:25.905Z,96996.25
2022-12-07T12:32:35.820Z,96994.59
2022-12-07T12:37:42.324Z,97002.06
2022-12-07T12:42:48.169Z,96998.44
2022-12-07T12:47:56.015Z,97002.59
2022-12-07T12:53:06.703Z,96997.88
2022-12-07T12:58:20.659Z,96998.00
2022-12-07T13:03:28.856Z,96991.50
2022-12-07T13:08:35.158Z,96980.19
2022-12-07T13:13:37.285Z,96973.94
2022-12-07T13:18:39.613Z,96976.53
2022-12-07T13:23:44.623Z,96971.16
2022-12-07T13:29:06.437Z,96962.66
2022-12-07T13:34:26.812Z,96963.25
2022-12-07T13:39:29.014Z,96974.00
2022-12-07T13:44:39.169Z,96963.38
2022-12-07T13:49:53.820Z,96963.03
2022-12-07T13:55:00.996Z,96961.63
2022-12-07T14:00:06.888Z,96958.44
2022-12-07T14:05:14.881Z,96964.34
2022-12-07T14:10:27.637Z,96959.16
2022-12-07T14:15:32.152Z,96954.91
2022-12-07T14:20:35.478Z,96948.22
2022-12-07T14:25:51.910Z,96949.88
2022-12-07T14:30:53.671Z,96951.06
2022-12-07T14:35:56.560Z,96952.94
2022-12-07T14:41:18.340Z,96950.72
2022-12-07T14:46:19.968Z,96949.72
2022-12-07T14:56:44.767Z,96944.06
2022-12-07T15:01:46.542Z,96951.59
2022-12-07T15:06:58.728Z,96949.75
2022-12-07T15:12:00.790Z,96949.22
2022-12-07T15:17:14.015Z,96945.94
2022-12-07T15:22:20.763Z,96945.94
2022-12-07T15:27:22.337Z,96941.66
2022-12-07T15:32:24.185Z,96946.75
2022-12-07T15:37:25.873Z,96945.59
2022-12-07T15:42:27.464Z,96941.66
2022-12-07T15:47:29.109Z,96941.25
2022-12-07T15:52:30.967Z,96925.50
2022-12-07T15:57:33.438Z,96927.75
2022-12-07T16:02:39.846Z,96922.56
2022-12-07T16:07:41.979Z,96925.50
2022-12-07T16:12:43.682Z,96932.25
2022-12-07T16:17:45.258Z,96927.66
2022-12-07T16:22:47.070Z,96930.28
2022-12-07T16:27:48.699Z,96923.69
2022-12-07T16:32:50.463Z,96918.75
2022-12-07T16:37:52.073Z,96923.09
2022-12-07T16:42:53.755Z,96917.91
2022-12-07T16:47:55.364Z,96926.28
2022-12-07T16:52:56.949Z,96922.50
2022-12-07T16:57:58.609Z,96923.34
2022-12-07T17:03:00.507Z,96919.06
2022-12-07T17:08:03.011Z,96916.59
2022-12-07T17:13:25.452Z,96914.97
2022-12-07T17:18:28.103Z,96917.66
2022-12-07T17:23:29.834Z,96911.16
2022-12-07T17:28:31.524Z,96903.28
2022-12-07T17:33:34.012Z,96907.06
2022-12-07T17:38:35.652Z,96907.91
2022-12-07T17:43:37.356Z,96901.38
2022-12-07T17:48:39.040Z,96897.34
2022-12-07T17:53:40.593Z,96902.47
2022-12-07T17:58:42.147Z,96904.59
2022-12-07T18:03:43.743Z,96895.38
2022-12-07T18:08:45.684Z,96897.03
2022-12-07T18:13:47.308Z,96897.03
2022-12-07T18:18:52.465Z,96902.47
2022-12-07T18:23:55.807Z,96895.06
2022-12-07T18:32:01.579Z,96902.94
2022-12-07T18:37:03.181Z,96904.09
2022-12-07T18:42:05.613Z,96904.63
2022-12-07T18:47:07.192Z,96896.38
2022-12-07T18:52:08.792Z,96901.09
2022-12-07T18:57:10.382Z,96898.13
2022-12-07T19:02:12.790Z,96905.19
2022-12-07T19:07:14.419Z,96892.72
2022-12-07T19:12:16.183Z,96901.91
2022-12-07T19:17:17.888Z,96895.19
2022-12-07T19:22:20.385Z,96888.44
2022-12-07T19:27:22.781Z,96890.09
2022-12-07T19:32:24.491Z,96879.56
2022-12-07T19:37:26.164Z,96882.22
2022-12-07T19:42:27.924Z,96874.56
2022-12-07T19:47:29.442Z,96873.97
2022-12-07T19:52:36.339Z,96879.88
2022-12-07T19:57:38.567Z,96874.94
2022-12-07T20:02:40.473Z,96873.78
2022-12-07T20:07:42.118Z,96861.84
2022-12-07T20:13:02.300Z,96858.66
2022-12-07T20:18:03.886Z,96861.38
2022-12-07T20:23:05.504Z,96850.28
2022-12-07T20:28:07.136Z,96856.53
2022-12-07T20:33:08.795Z,96846.66
2022-12-07T20:38:11.009Z,96858.94
2022-12-07T20:43:12.589Z,96854.00
2022-12-07T20:48:14.210Z,96864.38
2022-12-07T20:53:15.794Z,96853.53
2022-12-07T20:58:17.383Z,96843.50
2022-12-07T21:03:18.942Z,96844.31
2022-12-07T21:08:21.418Z,96842.78
2022-12-07T21:13:23.045Z,96827.41
2022-12-07T21:18:24.715Z,96834.72
2022-12-07T21:23:26.384Z,96822.13
2022-12-07T21:28:28.028Z,96829.97
2022-12-07T21:33:31.151Z,96823.03
2022-12-07T21:38:33.260Z,96817.97
2022-12-07T21:43:34.750Z,96817.84
2022-12-07T21:48:36.571Z,96814.94
2022-12-07T21:53:39.504Z,96817.66
2022-12-07T21:58:41.348Z,96812.00
2022-12-07T22:03:42.977Z,96810.59
2022-12-07T22:08:44.819Z,96813.56
2022-12-07T22:14:10.269Z,96812.28
2022-12-07T22:19:12.506Z,96814.59
2022-12-07T22:24:14.720Z,96813.19
2022-12-07T22:29:16.424Z,96805.31
2022-12-07T22:34:18.002Z,96803.56
2022-12-07T22:39:19.593Z,96793.09
2022-12-07T22:44:21.232Z,96789.13
2022-12-07T22:49:28.360Z,96785.13
2022-12-07T22:54:30.245Z,96784.44
2022-12-07T22:59:31.819Z,96765.38
2022-12-07T23:04:33.427Z,96770.19
2022-12-07T23:09:35.534Z,96770.91
2022-12-07T23:14:37.316Z,96771.03
2022-12-07T23:19:38.994Z,96764.78
2022-12-07T23:24:40.831Z,96761.50
2022-12-07T23:29:42.488Z,96758.56
2022-12-07T23:34:44.098Z,96759.97
2022-12-07T23:39:45.752Z,96753.25
2022-12-07T23:44:47.284Z,96747.97
2022-12-07T23:49:48.876Z,96747.81
2022-12-07T23:54:50.467Z,96750.28
2022-12-07T23:59:52.028Z,96735.25
